Time,TemperatureF,DewpointF,PressureIn,WindDirection,WindDirectionDegrees,WindSpeedMPH,WindSpeedGustMPH,Humidity,HourlyPrecipIn,Conditions,Clouds,dailyrainin,SoftwareType,DateUTC
2013-05-27 00:12:00,48.5,11.0,29.64,NNW,337,2.0,-999.0,22,-99.99,,,0.00,weatherlink.com 1.10,2013-05-27 06:12:00,
2013-05-27 00:27:00,48.9,11.0,29.65,NNW,337,0.0,-999.0,22,-99.99,,,0.00,weatherlink.com 1.10,2013-05-27 06:27:00,
2013-05-27 00:42:00,48.5,13.0,29.63,NNW,337,2.0,-999.0,24,-99.99,,,0.00,weatherlink.com 1.10,2013-05-27 06:42:00,
2013-05-27 00:57:00,51.3,9.0,29.64,NNW,337,1.0,-999.0,18,-99.99,,,0.00,weatherlink.com 1.10,2013-05-27 06:57:00,
2013-05-27 01:12:00,49.9,11.0,29.62,NNW,337,2.0,-999.0,21,-99.99,,,0.00,weatherlink.com 1.10,2013-05-27 07:12:00,
2013-05-27 01:27:00,47.9,10.0,29.64,NNW,337,0.0,-999.0,21,-99.99,,,0.00,weatherlink.com 1.10,2013-05-27 07:27:00,
2013-05-27 01:42:00,52.3,16.0,29.62,NNW,337,0.0,-999.0,24,-99.99,,,0.00,weatherlink.com 1.10,2013-05-27 07:42:00,
2013-05-27 01:57:00,51.3,11.0,29.60,NNW,337,0.0,-999.0,20,-99.99,,,0.00,weatherlink.com 1.10,2013-05-27 07:57:00,
2013-05-27 02:12:00,48.8,11.0,29.61,NNW,337,2.0,-999.0,22,-99.99,,,0.00,weatherlink.com 1.10,2013-05-27 08:12:00,
2013-05-27 02:27:00,44.2,13.0,29.64,NNW,337,3.0,-999.0,28,-99.99,,,0.00,weatherlink.com 1.10,2013-05-27 08:27:00,
2013-05-27 02:42:00,44.3,13.0,29.63,NNW,337,1.0,-999.0,28,-99.99,,,0.00,weatherlink.com 1.10,2013-05-27 08:42:00,
2013-05-27 02:57:00,44.5,14.0,29.64,NNW,337,0.0,-999.0,29,-99.99,,,0.00,weatherlink.com 1.10,2013-05-27 08:57:00,
2013-05-27 03:12:00,45.1,12.0,29.64,NNW,337,1.0,-999.0,26,-99.99,,,0.00,weatherlink.com 1.10,2013-05-27 09:12:00,
2013-05-27 03:27:00,42.3,12.0,29.64,NNW,337,3.0,-999.0,29,-99.99,,,0.00,weatherlink.com 1.10,2013-05-27 09:27:00,
2013-05-27 03:42:00,40.8,14.0,29.65,NNW,337,2.0,-999.0,33,-99.99,,,0.00,weatherlink.com 1.10,2013-05-27 09:42:00,
2013-05-27 03:57:00,40.9,14.0,29.66,NNW,337,0.0,-999.0,34,-99.99,,,0.00,weatherlink.com 1.10,2013-05-27 09:57:00,
2013-05-27 04:12:00,40.9,12.0,29.66,NNW,337,0.0,-999.0,30,-99.99,,,0.00,weatherlink.com 1.10,2013-05-27 10:12:00,
2013-05-27 04:28:00,40.1,13.0,29.66,NNW,337,0.0,-999.0,33,-99.99,,,0.00,weatherlink.com 1.10,2013-05-27 10:28:00,
2013-05-27 04:43:00,39.5,15.0,29.67,NNW,337,0.0,-999.0,37,-99.99,,,0.00,weatherlink.com 1.10,2013-05-27 10:43:00,
2013-05-27 04:58:00,39.9,12.0,29.67,NE,46,3.0,-999.0,32,-99.99,,,0.00,weatherlink.com 1.10,2013-05-27 10:58:00,
2013-05-27 05:14:00,41.5,10.0,29.67,North,6,4.0,-999.0,28,-99.99,,,0.00,weatherlink.com 1.10,2013-05-27 11:14:00,
2013-05-27 05:28:00,41.3,11.0,29.66,North,1,1.0,-999.0,29,-99.99,,,0.00,weatherlink.com 1.10,2013-05-27 11:28:00,
2013-05-27 05:43:00,41.1,12.0,29.68,North,1,0.0,-999.0,30,-99.99,,,0.00,weatherlink.com 1.10,2013-05-27 11:43:00,
2013-05-27 05:58:00,39.9,12.0,29.68,North,1,4.0,-999.0,32,-99.99,,,0.00,weatherlink.com 1.10,2013-05-27 11:58:00,
2013-05-27 06:14:00,39.9,14.0,29.69,North,1,1.0,-999.0,35,-99.99,,,0.00,weatherlink.com 1.10,2013-05-27 12:14:00,
2013-05-27 06:29:00,40.9,15.0,29.69,NNE,23,1.0,-999.0,35,-99.99,,,0.00,weatherlink.com 1.10,2013-05-27 12:29:00,
2013-05-27 06:43:00,41.3,16.0,29.69,NNE,23,0.0,-999.0,36,-99.99,,,0.00,weatherlink.com 1.10,2013-05-27 12:43:00,
2013-05-27 06:58:00,41.9,16.0,29.68,North,1,0.0,-999.0,35,-99.99,,,0.00,weatherlink.com 1.10,2013-05-27 12:58:00,
2013-05-27 07:14:00,43.6,20.0,29.68,North,1,2.0,-999.0,39,-99.99,,,0.00,weatherlink.com 1.10,2013-05-27 13:14:00,
2013-05-27 07:29:00,47.0,16.0,29.68,NNE,18,0.0,-999.0,29,-99.99,,,0.00,weatherlink.com 1.10,2013-05-27 13:29:00,
2013-05-27 07:45:00,50.7,18.0,29.68,NNE,20,2.0,-999.0,28,-99.99,,,0.00,weatherlink.com 1.10,2013-05-27 13:45:00,
2013-05-27 07:58:00,53.3,19.0,29.66,NNE,20,3.0,-999.0,26,-99.99,,,0.00,weatherlink.com 1.10,2013-05-27 13:58:00,
2013-05-27 08:14:00,56.3,20.0,29.64,NE,53,4.0,-999.0,24,-99.99,,,0.00,weatherlink.com 1.10,2013-05-27 14:14:00,
2013-05-27 08:29:00,58.9,18.0,29.63,NNE,25,0.0,-999.0,20,-99.99,,,0.00,weatherlink.com 1.10,2013-05-27 14:29:00,
2013-05-27 08:44:00,60.9,18.0,29.65,NNE,26,0.0,-999.0,19,-99.99,,,0.00,weatherlink.com 1.10,2013-05-27 14:44:00,
2013-05-27 08:59:00,63.4,18.0,29.63,NNE,30,0.0,-999.0,17,-99.99,,,0.00,weatherlink.com 1.10,2013-05-27 14:59:00,
2013-05-27 09:15:00,65.0,16.0,29.62,SSW,208,3.0,-999.0,15,-99.99,,,0.00,weatherlink.com 1.10,2013-05-27 15:15:00,
2013-05-27 09:30:00,65.8,17.0,29.61,SW,226,5.0,-999.0,15,-99.99,,,0.00,weatherlink.com 1.10,2013-05-27 15:30:00,
2013-05-27 09:45:00,66.9,16.0,29.66,SSE,148,2.0,-999.0,14,-99.99,,,0.00,weatherlink.com 1.10,2013-05-27 15:45:00,
2013-05-27 10:01:00,68.3,17.0,29.64,South,175,0.0,-999.0,14,-99.99,,,0.00,weatherlink.com 1.10,2013-05-27 16:01:00,
2013-05-27 10:14:00,68.9,16.0,29.63,West,269,0.0,-999.0,13,-99.99,,,0.00,weatherlink.com 1.10,2013-05-27 16:14:00,
2013-05-27 10:30:00,69.3,16.0,29.61,SSW,193,0.0,-999.0,13,-99.99,,,0.00,weatherlink.com 1.10,2013-05-27 16:30:00,
2013-05-27 10:45:00,70.4,17.0,29.67,SW,223,4.0,-999.0,13,-99.99,,,0.00,weatherlink.com 1.10,2013-05-27 16:45:00,
2013-05-27 11:01:00,70.6,17.0,29.65,WSW,245,3.0,-999.0,13,-99.99,,,0.00,weatherlink.com 1.10,2013-05-27 17:01:00,
2013-05-27 11:16:00,71.8,16.0,29.64,WNW,295,0.0,-999.0,12,-99.99,,,0.00,weatherlink.com 1.10,2013-05-27 17:16:00,
2013-05-27 11:31:00,72.1,17.0,29.66,SW,233,6.0,-999.0,12,-99.99,,,0.00,weatherlink.com 1.10,2013-05-27 17:31:00,
2013-05-27 11:45:00,73.3,16.0,29.66,SW,235,0.0,-999.0,11,-99.99,,,0.00,weatherlink.com 1.10,2013-05-27 17:45:00,
2013-05-27 12:00:00,73.7,18.0,29.65,SW,233,1.0,-999.0,12,-99.99,,,0.00,weatherlink.com 1.10,2013-05-27 18:00:00,
2013-05-27 12:16:00,74.7,17.0,29.64,SSW,206,0.0,-999.0,11,-99.99,,,0.00,weatherlink.com 1.10,2013-05-27 18:16:00,
2013-05-27 12:31:00,75.1,19.0,29.62,SE,144,0.0,-999.0,12,-99.99,,,0.00,weatherlink.com 1.10,2013-05-27 18:31:00,
2013-05-27 12:46:00,74.9,17.0,29.62,SSW,198,5.0,-999.0,11,-99.99,,,0.00,weatherlink.com 1.10,2013-05-27 18:46:00,
2013-05-27 13:02:00,75.3,15.0,29.61,SSE,156,4.0,-999.0,10,-99.99,,,0.00,weatherlink.com 1.10,2013-05-27 19:02:00,
2013-05-27 13:16:00,76.1,18.0,29.61,WSW,238,7.0,-999.0,11,-99.99,,,0.00,weatherlink.com 1.10,2013-05-27 19:16:00,
2013-05-27 13:31:00,77.2,16.0,29.60,WSW,254,3.0,-999.0,10,-99.99,,,0.00,weatherlink.com 1.10,2013-05-27 19:31:00,
2013-05-27 13:46:00,76.3,13.0,29.61,SW,214,3.0,-999.0,9,-99.99,,,0.00,weatherlink.com 1.10,2013-05-27 19:46:00,
2013-05-27 14:02:00,77.6,17.0,29.59,SSW,203,9.0,-999.0,10,-99.99,,,0.00,weatherlink.com 1.10,2013-05-27 20:02:00,
2013-05-27 14:17:00,76.8,16.0,29.59,SE,130,8.0,-999.0,10,-99.99,,,0.00,weatherlink.com 1.10,2013-05-27 20:17:00,
2013-05-27 14:32:00,76.7,14.0,29.61,SW,233,3.0,-999.0,9,-99.99,,,0.00,weatherlink.com 1.10,2013-05-27 20:32:00,
2013-05-27 14:46:00,77.0,14.0,29.60,WNW,287,9.0,-999.0,9,-99.99,,,0.00,weatherlink.com 1.10,2013-05-27 20:46:00,
2013-05-27 15:02:00,77.7,17.0,29.58,SW,220,4.0,-999.0,10,-99.99,,,0.00,weatherlink.com 1.10,2013-05-27 21:02:00,
2013-05-27 15:17:00,78.5,17.0,29.57,SSW,203,4.0,-999.0,10,-99.99,,,0.00,weatherlink.com 1.10,2013-05-27 21:17:00,
2013-05-27 15:32:00,78.5,15.0,29.58,NNW,333,2.0,-999.0,9,-99.99,,,0.00,weatherlink.com 1.10,2013-05-27 21:32:00,
2013-05-27 15:47:00,77.7,19.0,29.58,ESE,109,6.0,-999.0,11,-99.99,,,0.00,weatherlink.com 1.10,2013-05-27 21:47:00,
2013-05-27 16:03:00,79.6,13.0,29.57,SSW,203,6.0,-999.0,8,-99.99,,,0.00,weatherlink.com 1.10,2013-05-27 22:03:00,
2013-05-27 16:18:00,79.2,16.0,29.56,SW,231,11.0,-999.0,9,-99.99,,,0.00,weatherlink.com 1.10,2013-05-27 22:18:00,
2013-05-27 16:33:00,78.5,15.0,29.56,SW,221,0.0,-999.0,9,-99.99,,,0.00,weatherlink.com 1.10,2013-05-27 22:33:00,
2013-05-27 16:47:00,78.8,13.0,29.55,SSW,207,3.0,-999.0,8,-99.99,,,0.00,weatherlink.com 1.10,2013-05-27 22:47:00,
2013-05-27 17:02:00,77.7,14.0,29.55,SSW,210,6.0,-999.0,9,-99.99,,,0.00,weatherlink.com 1.10,2013-05-27 23:02:00,
2013-05-27 17:18:00,77.4,14.0,29.55,ESE,114,7.0,-999.0,9,-99.99,,,0.00,weatherlink.com 1.10,2013-05-27 23:18:00,
2013-05-27 17:33:00,77.2,16.0,29.56,South,174,0.0,-999.0,10,-99.99,,,0.00,weatherlink.com 1.10,2013-05-27 23:33:00,
2013-05-27 17:49:00,77.0,16.0,29.56,South,183,0.0,-999.0,10,-99.99,,,0.00,weatherlink.com 1.10,2013-05-27 23:49:00,
2013-05-27 18:03:00,76.7,16.0,29.56,South,188,3.0,-999.0,10,-99.99,,,0.00,weatherlink.com 1.10,2013-05-28 00:03:00,
2013-05-27 18:18:00,76.0,16.0,29.55,South,186,1.0,-999.0,10,-99.99,,,0.00,weatherlink.com 1.10,2013-05-28 00:18:00,
2013-05-27 18:33:00,76.1,16.0,29.53,South,191,0.0,-999.0,10,-99.99,,,0.00,weatherlink.com 1.10,2013-05-28 00:33:00,
2013-05-27 18:48:00,77.2,16.0,29.51,SSW,207,2.0,-999.0,10,-99.99,,,0.00,weatherlink.com 1.10,2013-05-28 00:48:00,
2013-05-27 19:03:00,76.3,16.0,29.51,SSW,206,3.0,-999.0,10,-99.99,,,0.00,weatherlink.com 1.10,2013-05-28 01:03:00,
2013-05-27 19:18:00,76.0,16.0,29.52,SE,141,3.0,-999.0,10,-99.99,,,0.00,weatherlink.com 1.10,2013-05-28 01:18:00,
2013-05-27 19:33:00,76.1,16.0,29.45,South,189,0.0,-999.0,10,-99.99,,,0.00,weatherlink.com 1.10,2013-05-28 01:33:00,
2013-05-27 19:48:00,76.0,16.0,29.45,South,189,0.0,-999.0,10,-99.99,,,0.00,weatherlink.com 1.10,2013-05-28 01:48:00,
2013-05-27 20:03:00,74.9,15.0,29.45,South,188,0.0,-999.0,10,-99.99,,,0.00,weatherlink.com 1.10,2013-05-28 02:03:00,
2013-05-27 20:18:00,73.0,13.0,29.46,West,259,3.0,-999.0,10,-99.99,,,0.00,weatherlink.com 1.10,2013-05-28 02:18:00,
2013-05-27 20:33:00,71.3,12.0,29.44,WSW,255,4.0,-999.0,10,-99.99,,,0.00,weatherlink.com 1.10,2013-05-28 02:33:00,
2013-05-27 20:48:00,69.8,11.0,29.46,WSW,257,4.0,-999.0,10,-99.99,,,0.00,weatherlink.com 1.10,2013-05-28 02:48:00,
2013-05-27 21:03:00,69.1,10.0,29.46,WSW,252,6.0,-999.0,10,-99.99,,,0.00,weatherlink.com 1.10,2013-05-28 03:03:00,
2013-05-27 21:18:00,68.1,11.0,29.47,West,261,2.0,-999.0,11,-99.99,,,0.00,weatherlink.com 1.10,2013-05-28 03:18:00,
2013-05-27 21:33:00,66.9,12.0,29.45,West,269,2.0,-999.0,12,-99.99,,,0.00,weatherlink.com 1.10,2013-05-28 03:33:00,
2013-05-27 21:48:00,66.0,12.0,29.48,West,270,2.0,-999.0,12,-99.99,,,0.00,weatherlink.com 1.10,2013-05-28 03:48:00,
2013-05-27 22:03:00,64.8,13.0,29.48,West,260,2.0,-999.0,13,-99.99,,,0.00,weatherlink.com 1.10,2013-05-28 04:03:00,
2013-05-27 22:18:00,63.5,13.0,29.49,West,261,0.0,-999.0,14,-99.99,,,0.00,weatherlink.com 1.10,2013-05-28 04:18:00,
2013-05-27 22:33:00,62.3,12.0,29.48,WSW,255,0.0,-999.0,14,-99.99,,,0.00,weatherlink.com 1.10,2013-05-28 04:33:00,
2013-05-27 22:48:00,62.6,13.0,29.48,WSW,255,0.0,-999.0,14,-99.99,,,0.00,weatherlink.com 1.10,2013-05-28 04:48:00,
2013-05-27 23:03:00,62.3,12.0,29.48,WSW,255,0.0,-999.0,14,-99.99,,,0.00,weatherlink.com 1.10,2013-05-28 05:03:00,
2013-05-27 23:18:00,60.5,14.0,29.49,WSW,255,0.0,-999.0,16,-99.99,,,0.00,weatherlink.com 1.10,2013-05-28 05:18:00,
2013-05-27 23:33:00,54.1,16.0,29.50,West,269,0.0,-999.0,22,-99.99,,,0.00,weatherlink.com 1.10,2013-05-28 05:33:00,
2013-05-27 23:48:00,49.5,14.0,29.54,West,269,3.0,-999.0,24,-99.99,,,0.00,weatherlink.com 1.10,2013-05-28 05:48:00,